Time;durP1;ratioP1;P1;durP2;ratioP2;P2;SDS_P1;SDS_P2;PMS_P1;PMS_P2;Temp;Humidity;BMP_temperature;BMP_pressure;BME280_temperature;BME280_humidity;BME280_pressure;Samples;Min_cycle;Max_cycle;Signal;HPM_P1;HPM_P2
2023/09/10 00:01:08;;;;;;;52.30;46.33;;;19.40;1.00;;;;;;5108306;28;20409;-75
2023/09/10 00:03:33;;;;;;;53.33;47.23;;;19.40;1.00;;;;;;5108805;28;20396;-75
2023/09/10 00:06:00;;;;;;;54.40;48.58;;;19.40;1.00;;;;;;5108059;28;20450;-75
2023/09/10 00:08:26;;;;;;;51.90;46.53;;;19.40;1.00;;;;;;5108428;28;21205;-74
2023/09/10 00:10:52;;;;;;;52.58;46.97;;;19.30;3.20;;;;;;5107638;28;20509;-74
2023/09/10 00:13:18;;;;;;;54.25;48.45;;;19.30;17.10;;;;;;5108642;28;20487;-74
2023/09/10 00:15:43;;;;;;;52.67;46.97;;;19.30;61.10;;;;;;5108320;28;20766;-75
2023/09/10 00:18:09;;;;;;;52.38;46.75;;;19.20;90.00;;;;;;5108813;28;20504;-75
2023/09/10 00:20:35;;;;;;;52.00;46.50;;;19.20;99.90;;;;;;5110189;28;20419;-74
2023/09/10 00:23:00;;;;;;;50.70;45.20;;;19.20;99.90;;;;;;5109512;28;20453;-75
2023/09/10 00:25:26;;;;;;;49.97;44.57;;;19.20;99.90;;;;;;5109900;28;20404;-75
2023/09/10 00:27:52;;;;;;;50.27;44.83;;;19.10;99.90;;;;;;5091221;28;20751;-75
2023/09/10 00:30:18;;;;;;;49.30;44.00;;;19.10;99.90;;;;;;5109580;28;20404;-74
2023/09/10 00:32:44;;;;;;;48.22;43.05;;;19.10;99.90;;;;;;5109207;28;20411;-74
2023/09/10 00:35:09;;;;;;;47.77;42.67;;;19.00;99.90;;;;;;5109704;28;20893;-74
2023/09/10 00:37:35;;;;;;;48.28;43.28;;;19.00;99.90;;;;;;5109184;28;20933;-74
2023/09/10 00:40:01;;;;;;;48.93;42.93;;;19.00;99.90;;;;;;5111853;28;20400;-74
2023/09/10 00:42:26;;;;;;;49.67;44.22;;;19.00;99.90;;;;;;5094713;28;20401;-74
2023/09/10 00:44:52;;;;;;;48.70;43.40;;;19.00;99.90;;;;;;5113881;27;20867;-74
2023/09/10 00:47:18;;;;;;;48.43;43.33;;;19.00;99.90;;;;;;5113096;27;20404;-75
2023/09/10 00:49:44;;;;;;;49.70;44.30;;;19.00;99.90;;;;;;5112290;27;20932;-74
2023/09/10 00:52:11;;;;;;;47.35;42.38;;;18.90;99.90;;;;;;5111568;28;20392;-75
2023/09/10 00:54:38;;;;;;;48.30;43.08;;;18.90;99.90;;;;;;5098441;27;21291;-74
2023/09/10 00:57:04;;;;;;;45.88;40.95;;;18.90;99.90;;;;;;5092648;28;20446;-75
2023/09/10 00:59:31;;;;;;;45.50;40.58;;;18.90;99.90;;;;;;5112004;27;20814;-75
2023/09/10 01:02:00;;;;;;;46.50;41.45;;;18.90;99.90;;;;;;5093814;28;20396;-74
2023/09/10 01:04:26;;;;;;;46.97;41.95;;;18.90;99.90;;;;;;5111273;28;20453;-74
2023/09/10 01:06:52;;;;;;;47.33;42.38;;;18.80;99.90;;;;;;5111466;27;20404;-74
2023/09/10 01:09:18;;;;;;;47.90;43.00;;;18.80;99.90;;;;;;5092601;28;20427;-74
2023/09/10 01:12:02;;;;;;;49.15;43.97;;;18.80;99.90;;;;;;5111470;28;20474;-74
2023/09/10 01:14:34;;;;;;;48.10;42.85;;;18.80;99.90;;;;;;5111083;27;20409;-75
2023/09/10 01:17:14;;;;;;;48.80;43.58;;;18.80;99.90;;;;;;5111623;27;20424;-74
2023/09/10 01:19:48;;;;;;;50.65;45.25;;;18.80;99.90;;;;;;5111149;28;20405;-75
2023/09/10 01:22:32;;;;;;;51.47;45.87;;;18.70;99.90;;;;;;5077157;27;20451;-75
2023/09/10 01:24:57;;;;;;;50.97;45.35;;;18.70;99.90;;;;;;5102509;27;20397;-74
2023/09/10 01:27:23;;;;;;;53.80;47.93;;;18.70;99.90;;;;;;5111220;27;20445;-74
2023/09/10 01:29:49;;;;;;;56.83;50.17;;;18.60;99.90;;;;;;5093378;28;20808;-75
2023/09/10 01:32:32;;;;;;;54.97;48.97;;;18.60;99.90;;;;;;5110703;27;20475;-74
2023/09/10 01:35:15;;;;;;;53.67;47.15;;;18.60;99.90;;;;;;5111226;28;20406;-74
2023/09/10 01:38:18;;;;;;;53.45;47.58;;;18.50;99.90;;;;;;5112554;27;20493;-74
2023/09/10 01:41:03;;;;;;;52.63;46.92;;;18.50;99.90;;;;;;4972134;28;20418;-74
2023/09/10 01:43:32;;;;;;;51.58;45.95;;;18.50;99.90;;;;;;5100869;27;21210;-75
2023/09/10 01:45:57;;;;;;;50.92;44.88;;;18.50;99.90;;;;;;5112854;27;20405;-74
2023/09/10 01:48:26;;;;;;;49.70;44.13;;;18.50;99.90;;;;;;5108073;28;21002;-75
2023/09/10 01:50:53;;;;;;;49.92;44.53;;;18.50;99.90;;;;;;5099926;28;20397;-75
2023/09/10 01:53:19;;;;;;;47.75;42.53;;;18.50;99.90;;;;;;5092399;27;20399;-75
2023/09/10 01:55:45;;;;;;;49.35;44.05;;;18.50;99.90;;;;;;5110806;27;20409;-74
2023/09/10 01:58:13;;;;;;;52.03;46.10;;;18.40;99.90;;;;;;5111710;27;20916;-74
2023/09/10 02:00:39;;;;;;;51.10;45.42;;;18.40;99.90;;;;;;5111296;27;20396;-74
2023/09/10 02:03:05;;;;;;;53.75;47.67;;;18.40;99.90;;;;;;5111436;27;20895;-74
2023/09/10 02:05:30;;;;;;;56.47;50.07;;;18.40;1.00;;;;;;5111700;27;20404;-74
2023/09/10 02:07:56;;;;;;;55.17;48.88;;;18.40;1.00;;;;;;5111882;27;20430;-74
2023/09/10 02:10:22;;;;;;;54.93;48.80;;;18.40;1.00;;;;;;5110322;27;20392;-74
2023/09/10 02:12:48;;;;;;;58.80;48.13;;;18.40;1.00;;;;;;5095717;27;20447;-75
2023/09/10 02:15:14;;;;;;;52.40;46.47;;;18.40;1.00;;;;;;5093906;28;20796;-75
2023/09/10 02:17:39;;;;;;;51.40;45.83;;;18.40;1.00;;;;;;5092936;28;20432;-75
2023/09/10 02:20:09;;;;;;;52.57;46.77;;;18.40;1.00;;;;;;5112053;27;20449;-75
2023/09/10 02:22:41;;;;;;;51.72;46.17;;;18.40;1.00;;;;;;5113784;27;20399;-75
2023/09/10 02:25:08;;;;;;;54.03;47.67;;;18.30;1.00;;;;;;5111050;27;20887;-75
2023/09/10 02:27:35;;;;;;;52.03;46.33;;;18.30;1.00;;;;;;5112884;27;20427;-75
2023/09/10 02:30:02;;;;;;;55.05;47.35;;;18.30;1.00;;;;;;5090914;28;20451;-75
2023/09/10 02:32:28;;;;;;;52.47;46.87;;;18.30;1.00;;;;;;5111490;27;20756;-75
2023/09/10 02:34:54;;;;;;;52.95;46.65;;;18.20;1.00;;;;;;5110664;27;20404;-74
2023/09/10 02:37:19;;;;;;;55.60;49.57;;;18.20;1.00;;;;;;5110248;27;20423;-75
2023/09/10 02:39:45;;;;;;;53.30;47.50;;;18.20;1.00;;;;;;5110075;27;20401;-74
2023/09/10 02:42:11;;;;;;;53.95;48.08;;;18.20;1.00;;;;;;5109917;28;20411;-75
2023/09/10 02:44:37;;;;;;;53.43;47.57;;;18.20;1.00;;;;;;5109965;27;20404;-74
2023/09/10 02:47:02;;;;;;;52.23;46.67;;;18.20;1.00;;;;;;5110249;27;20913;-74
2023/09/10 02:49:28;;;;;;;54.42;48.53;;;18.20;1.00;;;;;;5109466;28;20404;-74
2023/09/10 02:51:54;;;;;;;54.75;48.85;;;18.10;1.00;;;;;;5110204;27;20391;-75
2023/09/10 02:54:20;;;;;;;56.13;50.03;;;18.10;1.00;;;;;;5109437;28;20892;-75
2023/09/10 02:56:46;;;;;;;53.63;47.83;;;18.10;1.00;;;;;;5109096;28;20428;-75
2023/09/10 02:59:23;;;;;;;54.42;48.47;;;18.10;1.00;;;;;;5091425;28;20404;-75
2023/09/10 03:01:49;;;;;;;53.22;47.53;;;18.10;1.00;;;;;;5109086;27;20467;-75
2023/09/10 03:04:15;;;;;;;54.78;48.80;;;18.10;1.00;;;;;;5108831;28;20446;-74
2023/09/10 03:06:45;;;;;;;54.40;48.40;;;18.00;1.00;;;;;;5108965;28;20397;-74
2023/09/10 03:09:13;;;;;;;52.03;46.33;;;18.00;1.00;;;;;;5109226;27;20401;-74
2023/09/10 03:11:40;;;;;;;53.20;47.15;;;18.00;1.00;;;;;;5109087;28;20423;-75
2023/09/10 03:14:06;;;;;;;53.63;47.92;;;18.00;1.00;;;;;;5108321;28;20396;-74
2023/09/10 03:16:34;;;;;;;60.72;52.97;;;18.00;1.00;;;;;;5108655;28;20420;-74
2023/09/10 03:18:59;;;;;;;61.78;53.35;;;18.00;1.00;;;;;;5109451;27;20396;-75
2023/09/10 03:21:26;;;;;;;54.80;48.90;;;17.90;1.00;;;;;;5109397;28;20488;-75
2023/09/10 03:23:52;;;;;;;56.67;50.50;;;17.90;1.00;;;;;;5090620;28;21153;-75
2023/09/10 03:26:17;;;;;;;58.10;51.25;;;17.90;1.00;;;;;;5110065;27;20503;-75
2023/09/10 03:28:43;;;;;;;61.45;53.65;;;17.90;1.00;;;;;;5092231;28;20464;-74
2023/09/10 03:31:09;;;;;;;59.67;53.23;;;17.90;1.00;;;;;;5091331;28;20409;-74
2023/09/10 03:33:35;;;;;;;57.40;50.95;;;17.90;1.00;;;;;;5109697;28;20441;-74
2023/09/10 03:36:01;;;;;;;59.95;53.35;;;17.90;1.00;;;;;;5108526;27;20396;-74
2023/09/10 03:38:26;;;;;;;62.03;55.10;;;17.90;1.00;;;;;;5093210;28;20467;-74
2023/09/10 03:40:52;;;;;;;60.42;53.95;;;17.90;1.00;;;;;;5108356;28;20400;-74
2023/09/10 03:43:18;;;;;;;59.90;52.80;;;17.90;1.00;;;;;;5108341;28;20435;-75
2023/09/10 03:45:44;;;;;;;60.75;52.92;;;17.90;1.00;;;;;;5109265;27;20807;-74
2023/09/10 03:48:10;;;;;;;63.70;55.17;;;17.80;1.00;;;;;;5108668;27;20445;-74
2023/09/10 03:50:35;;;;;;;61.42;54.67;;;17.80;1.00;;;;;;5108983;27;20392;-75
2023/09/10 03:53:02;;;;;;;61.45;53.35;;;17.90;1.00;;;;;;5108661;28;20479;-74
2023/09/10 03:55:27;;;;;;;62.65;54.97;;;17.80;1.00;;;;;;5108604;28;20944;-74
2023/09/10 03:57:53;;;;;;;61.23;54.03;;;17.90;1.00;;;;;;5086339;28;20437;-74
2023/09/10 04:00:19;;;;;;;64.20;56.20;;;17.80;1.00;;;;;;5088119;28;20436;-74
2023/09/10 04:02:45;;;;;;;65.53;56.50;;;17.80;1.00;;;;;;5086037;28;21528;-74
2023/09/10 04:05:14;;;;;;;62.42;54.63;;;17.80;1.00;;;;;;5086377;28;21309;-73
2023/09/10 04:07:40;;;;;;;62.90;54.50;;;17.80;1.00;;;;;;5097093;28;20946;-74
2023/09/10 04:10:09;;;;;;;64.80;55.92;;;17.70;1.00;;;;;;5085567;28;20418;-74
2023/09/10 04:12:36;;;;;;;65.15;55.90;;;17.80;1.00;;;;;;5077716;28;20398;-74
2023/09/10 04:15:01;;;;;;;62.95;54.15;;;17.80;1.00;;;;;;5091307;28;20943;-74
2023/09/10 04:17:28;;;;;;;66.65;57.13;;;17.70;1.00;;;;;;5090559;28;20452;-74
2023/09/10 04:20:00;;;;;;;68.75;57.70;;;17.70;1.00;;;;;;5090491;28;20409;-74
2023/09/10 04:22:26;;;;;;;71.80;61.03;;;17.70;1.00;;;;;;5090887;28;20502;-74
2023/09/10 04:24:52;;;;;;;76.53;61.60;;;17.70;1.00;;;;;;5090966;28;20409;-74
2023/09/10 04:27:17;;;;;;;114.30;69.90;;;17.70;1.00;;;;;;5091822;28;20402;-74
2023/09/10 04:29:43;;;;;;;95.60;68.93;;;17.70;1.00;;;;;;5090751;28;20406;-73
2023/09/10 04:32:09;;;;;;;90.30;69.70;;;17.70;1.00;;;;;;5091442;28;20887;-73
2023/09/10 04:34:34;;;;;;;87.10;68.50;;;17.70;1.00;;;;;;5091930;28;20402;-73
2023/09/10 04:37:03;;;;;;;81.60;65.22;;;17.70;1.00;;;;;;5074591;28;20440;-74
2023/09/10 04:39:28;;;;;;;85.88;65.60;;;17.70;1.00;;;;;;5090730;28;20759;-74
2023/09/10 04:41:54;;;;;;;86.47;64.53;;;17.70;1.00;;;;;;5091537;28;20443;-74
2023/09/10 04:44:20;;;;;;;88.57;64.85;;;17.70;1.00;;;;;;5089228;28;20519;-74
2023/09/10 04:46:46;;;;;;;91.35;62.95;;;17.70;1.00;;;;;;5080090;28;20450;-74
2023/09/10 04:49:12;;;;;;;84.68;59.67;;;17.70;1.00;;;;;;5091160;28;20390;-74
2023/09/10 04:51:37;;;;;;;72.15;56.10;;;17.70;1.00;;;;;;5091427;28;20481;-74
2023/09/10 04:54:03;;;;;;;83.90;53.10;;;17.70;1.00;;;;;;5090953;28;20401;-74
2023/09/10 04:56:29;;;;;;;67.88;52.35;;;17.70;1.00;;;;;;5098898;28;21028;-74
2023/09/10 04:58:55;;;;;;;86.20;50.83;;;17.60;1.00;;;;;;5110969;28;20411;-74
2023/09/10 05:01:20;;;;;;;65.38;48.38;;;17.60;1.00;;;;;;5111530;28;20404;-74
2023/09/10 05:03:46;;;;;;;60.87;50.37;;;17.60;1.00;;;;;;5111374;27;20404;-74
2023/09/10 05:06:13;;;;;;;74.10;51.38;;;17.60;1.00;;;;;;5110611;28;20550;-74
2023/09/10 05:08:39;;;;;;;88.20;55.53;;;17.60;1.00;;;;;;5111199;27;20416;-73
2023/09/10 05:11:05;;;;;;;65.38;55.63;;;17.60;1.00;;;;;;5092572;28;20769;-74
2023/09/10 05:13:31;;;;;;;60.78;54.17;;;17.60;1.00;;;;;;5108687;28;20765;-74
2023/09/10 05:15:57;;;;;;;59.85;53.28;;;17.50;1.00;;;;;;5114028;27;20808;-74
2023/09/10 05:18:26;;;;;;;61.33;54.63;;;17.60;1.00;;;;;;5113353;27;20425;-73
2023/09/10 05:20:53;;;;;;;58.90;52.65;;;17.60;1.00;;;;;;5110270;28;20764;-73
2023/09/10 05:23:23;;;;;;;58.22;52.00;;;17.60;1.00;;;;;;5111061;27;20469;-73
2023/09/10 05:25:49;;;;;;;65.15;52.25;;;17.60;1.00;;;;;;5074612;28;20409;-74
2023/09/10 05:28:16;;;;;;;56.80;51.05;;;17.60;1.00;;;;;;5110456;27;20402;-75
2023/09/10 05:30:41;;;;;;;66.93;51.90;;;17.60;1.00;;;;;;5110192;27;20396;-74
2023/09/10 05:33:07;;;;;;;56.63;50.72;;;17.60;1.00;;;;;;5111141;27;20398;-74
2023/09/10 05:35:32;;;;;;;76.20;50.43;;;17.70;1.00;;;;;;5111342;27;20401;-74
2023/09/10 05:37:58;;;;;;;56.92;51.03;;;17.70;1.00;;;;;;5111240;27;20447;-74
2023/09/10 05:40:25;;;;;;;59.73;51.00;;;17.70;1.00;;;;;;5092197;28;20419;-74
2023/09/10 05:42:51;;;;;;;74.22;47.25;;;17.70;1.00;;;;;;5110736;27;20504;-74
2023/09/10 05:45:16;;;;;;;55.37;43.60;;;17.70;1.00;;;;;;5110873;27;20396;-74
2023/09/10 05:47:42;;;;;;;62.00;44.38;;;17.80;1.00;;;;;;5111628;27;20404;-74
2023/09/10 05:50:08;;;;;;;55.63;44.27;;;17.80;1.00;;;;;;5110606;27;20407;-74
2023/09/10 05:52:34;;;;;;;51.42;45.97;;;17.90;1.00;;;;;;5110174;27;21318;-74
2023/09/10 05:54:59;;;;;;;52.10;46.67;;;17.90;1.00;;;;;;5110380;27;20393;-74
2023/09/10 05:57:25;;;;;;;51.70;46.50;;;17.90;1.00;;;;;;5111528;27;20427;-74
2023/09/10 05:59:51;;;;;;;52.63;47.37;;;17.90;1.00;;;;;;5111329;27;20463;-74
2023/09/10 06:02:17;;;;;;;71.65;48.42;;;17.90;1.00;;;;;;5112223;27;20396;-74
2023/09/10 06:04:42;;;;;;;65.63;50.00;;;18.00;1.00;;;;;;5111320;27;20447;-73
2023/09/10 06:07:08;;;;;;;76.37;51.60;;;17.90;1.00;;;;;;5093772;27;20424;-73
2023/09/10 06:09:33;;;;;;;112.13;54.03;;;17.90;1.00;;;;;;5076401;28;20514;-74
2023/09/10 06:12:02;;;;;;;82.20;52.88;;;17.90;1.00;;;;;;5111441;27;20449;-73
2023/09/10 06:14:30;;;;;;;93.68;52.53;;;17.90;1.00;;;;;;5065944;28;20408;-74
2023/09/10 06:16:56;;;;;;;84.20;49.40;;;17.90;1.00;;;;;;5113388;27;20477;-74
2023/09/10 06:19:22;;;;;;;80.57;48.88;;;17.90;1.00;;;;;;5110859;27;20400;-73
2023/09/10 06:21:47;;;;;;;53.27;47.53;;;18.00;1.00;;;;;;5095495;27;20449;-74
2023/09/10 06:24:13;;;;;;;76.03;44.00;;;18.00;1.00;;;;;;5112218;27;20901;-73
2023/09/10 06:26:39;;;;;;;76.93;43.70;;;18.10;1.00;;;;;;5111581;27;20426;-74
2023/09/10 06:29:05;;;;;;;59.72;43.10;;;18.10;1.00;;;;;;5111823;27;20401;-74
2023/09/10 06:31:30;;;;;;;48.13;43.45;;;18.10;1.00;;;;;;5114202;27;20400;-74
2023/09/10 06:33:56;;;;;;;50.23;44.53;;;18.10;1.00;;;;;;5102250;27;20388;-73
2023/09/10 06:36:22;;;;;;;54.00;44.38;;;18.20;1.00;;;;;;5092284;28;20473;-73
2023/09/10 06:38:48;;;;;;;49.30;43.67;;;18.20;1.00;;;;;;5110176;27;20894;-73
2023/09/10 06:41:17;;;;;;;46.90;42.17;;;18.30;1.00;;;;;;5110746;27;20400;-74
2023/09/10 06:43:43;;;;;;;47.72;43.22;;;18.30;1.00;;;;;;5109721;27;20941;-73
2023/09/10 06:46:10;;;;;;;46.13;41.50;;;18.30;1.00;;;;;;5109830;27;20979;-74
2023/09/10 06:48:35;;;;;;;49.42;44.60;;;18.40;1.00;;;;;;5109927;27;20389;-74
2023/09/10 06:51:02;;;;;;;50.07;45.30;;;18.40;1.00;;;;;;5110377;27;21140;-74
2023/09/10 06:53:28;;;;;;;51.53;46.73;;;18.40;1.00;;;;;;5109807;27;20412;-74
2023/09/10 06:55:54;;;;;;;49.65;45.15;;;18.50;1.00;;;;;;5074713;27;20928;-69
2023/09/10 06:58:20;;;;;;;46.33;42.22;;;18.50;1.00;;;;;;5109373;28;20432;-71
2023/09/10 07:00:46;;;;;;;46.60;42.22;;;18.60;1.00;;;;;;5106821;27;21058;-73
2023/09/10 07:03:13;;;;;;;46.08;41.97;;;18.70;1.00;;;;;;5109178;28;20400;-73
2023/09/10 07:05:40;;;;;;;48.33;43.83;;;18.70;1.00;;;;;;5108320;28;20411;-73
2023/09/10 07:08:06;;;;;;;52.78;47.65;;;18.70;1.00;;;;;;5112756;27;20403;-73
2023/09/10 07:10:31;;;;;;;56.17;50.50;;;18.80;1.00;;;;;;5116702;27;20403;-73
2023/09/10 07:12:57;;;;;;;56.67;50.93;;;18.80;1.00;;;;;;5093874;27;20912;-74
2023/09/10 07:15:22;;;;;;;56.97;51.08;;;18.80;1.00;;;;;;5075167;27;20395;-74
2023/09/10 07:17:48;;;;;;;57.83;51.90;;;18.90;1.00;;;;;;5110968;27;20439;-74
2023/09/10 07:20:14;;;;;;;57.20;51.53;;;18.90;1.00;;;;;;5111681;27;20394;-74
2023/09/10 07:22:39;;;;;;;58.53;52.42;;;19.00;1.00;;;;;;5107647;28;20511;-74
2023/09/10 07:25:05;;;;;;;59.30;53.03;;;19.10;1.00;;;;;;5107488;28;20428;-75
2023/09/10 07:27:31;;;;;;;60.35;53.85;;;19.20;1.00;;;;;;5111283;27;20389;-74
2023/09/10 07:29:56;;;;;;;61.17;54.63;;;19.20;1.00;;;;;;5113565;27;20434;-74
2023/09/10 07:32:22;;;;;;;60.63;54.15;;;19.30;1.00;;;;;;5088320;28;21272;-74
2023/09/10 07:34:47;;;;;;;62.60;55.90;;;19.40;1.00;;;;;;5108097;27;20397;-76
2023/09/10 07:37:13;;;;;;;59.58;53.30;;;19.50;1.00;;;;;;5107145;28;20839;-76
2023/09/10 07:39:39;;;;;;;60.60;54.23;;;19.50;1.00;;;;;;5089815;27;20489;-76
2023/09/10 07:42:04;;;;;;;61.80;55.27;;;19.60;1.00;;;;;;5108716;27;20400;-76
2023/09/10 07:44:30;;;;;;;61.05;54.47;;;19.70;1.00;;;;;;5090048;28;20416;-75
2023/09/10 07:46:56;;;;;;;59.40;53.10;;;19.80;1.00;;;;;;5109520;27;20800;-76
2023/09/10 07:49:21;;;;;;;56.53;50.65;;;19.90;1.00;;;;;;5105425;28;20445;-74
2023/09/10 07:51:47;;;;;;;52.23;46.93;;;20.00;1.00;;;;;;5105581;28;20408;-73
2023/09/10 07:54:13;;;;;;;51.97;46.60;;;20.10;1.00;;;;;;5108492;27;20415;-74
2023/09/10 07:56:38;;;;;;;49.70;44.57;;;20.20;1.00;;;;;;5107596;28;20400;-74
2023/09/10 07:59:08;;;;;;;48.07;43.07;;;20.20;1.00;;;;;;5107830;28;20499;-74
2023/09/10 08:01:33;;;;;;;49.22;44.10;;;20.40;1.00;;;;;;5111152;28;20420;-74
2023/09/10 08:03:59;;;;;;;49.43;44.23;;;20.40;1.00;;;;;;5109482;28;20410;-71
2023/09/10 08:06:24;;;;;;;46.83;42.17;;;20.50;1.00;;;;;;5109472;28;20894;-72
2023/09/10 08:08:50;;;;;;;47.42;42.72;;;20.60;1.00;;;;;;5110898;28;20410;-72
2023/09/10 08:11:16;;;;;;;44.77;40.17;;;20.70;1.00;;;;;;5091055;28;20408;-73
2023/09/10 08:13:42;;;;;;;42.22;37.65;;;20.80;1.00;;;;;;5109037;28;20876;-73
2023/09/10 08:16:13;;;;;;;42.53;38.38;;;20.90;1.00;;;;;;5108822;28;20407;-72
2023/09/10 08:18:39;;;;;;;42.63;38.23;;;21.00;1.00;;;;;;5107663;28;20503;-73
2023/09/10 08:21:04;;;;;;;42.20;37.90;;;21.10;1.00;;;;;;5106534;28;20437;-74
2023/09/10 08:23:30;;;;;;;42.85;38.50;;;21.20;1.00;;;;;;5116664;28;20893;-73
2023/09/10 08:25:56;;;;;;;42.70;38.30;;;21.30;1.00;;;;;;5116065;28;20411;-73
2023/09/10 08:28:21;;;;;;;39.83;35.72;;;21.40;1.00;;;;;;5080226;28;20459;-73
2023/09/10 08:30:47;;;;;;;38.70;34.60;;;21.50;1.00;;;;;;5096012;28;20406;-73
2023/09/10 08:33:12;;;;;;;40.33;36.03;;;21.50;1.00;;;;;;5114523;28;20435;-73
2023/09/10 08:35:47;;;;;;;38.45;34.38;;;21.70;1.00;;;;;;5107403;28;20449;-73
2023/09/10 08:38:13;;;;;;;39.38;35.28;;;21.70;1.00;;;;;;5100004;28;20420;-74
2023/09/10 08:40:54;;;;;;;37.63;33.70;;;21.80;1.00;;;;;;5107770;28;20407;-73
2023/09/10 08:43:23;;;;;;;35.88;32.15;;;22.00;1.00;;;;;;5090638;28;20492;-73
2023/09/10 08:45:50;;;;;;;33.25;29.65;;;22.10;1.00;;;;;;5107618;28;20411;-73
2023/09/10 08:48:18;;;;;;;30.92;27.73;;;22.20;1.00;;;;;;5108969;28;20416;-73
2023/09/10 08:50:46;;;;;;;29.15;25.95;;;22.30;1.00;;;;;;5089688;28;20427;-74
2023/09/10 08:53:14;;;;;;;28.30;25.27;;;22.40;1.00;;;;;;5107604;28;20409;-73
2023/09/10 08:55:42;;;;;;;29.65;26.65;;;22.50;1.00;;;;;;5106573;28;20416;-75
2023/09/10 08:58:11;;;;;;;25.60;22.87;;;22.60;1.00;;;;;;5111692;28;20908;-73
2023/09/10 09:00:38;;;;;;;26.23;23.50;;;22.70;1.00;;;;;;5111566;27;20477;-74
2023/09/10 09:03:04;;;;;;;24.67;22.17;;;22.80;99.90;;;;;;5114420;27;20430;-73
2023/09/10 09:05:31;;;;;;;24.83;22.23;;;22.90;99.90;;;;;;5115837;27;20408;-73
2023/09/10 09:08:05;;;;;;;23.00;20.63;;;23.00;99.90;;;;;;5113935;27;20397;-73
2023/09/10 09:10:33;;;;;;;24.10;21.60;;;23.10;99.90;;;;;;5113966;27;20410;-74
2023/09/10 09:13:03;;;;;;;24.30;21.80;;;23.30;99.90;;;;;;5119558;27;20402;-73
2023/09/10 09:15:31;;;;;;;23.50;21.10;;;23.40;99.90;;;;;;5117995;27;20417;-74
2023/09/10 09:17:58;;;;;;;21.90;19.67;;;23.70;99.90;;;;;;5092321;28;20432;-73
2023/09/10 09:20:25;;;;;;;24.02;21.52;;;24.50;99.90;;;;;;5118658;27;20450;-74
2023/09/10 09:23:08;;;;;;;22.83;20.42;;;25.20;66.20;;;;;;5116064;27;20898;-74
2023/09/10 09:25:36;;;;;;;20.85;18.75;;;26.00;95.90;;;;;;5112159;27;20501;-74
2023/09/10 09:28:03;;;;;;;20.27;18.08;;;26.60;96.60;;;;;;5116640;27;20415;-75
2023/09/10 09:30:29;;;;;;;20.20;18.10;;;27.10;99.90;;;;;;5119468;27;20416;-74
2023/09/10 09:32:56;;;;;;;18.77;16.67;;;27.60;99.90;;;;;;5111849;27;20483;-74
2023/09/10 09:35:21;;;;;;;18.65;16.85;;;27.90;1.00;;;;;;5110474;28;20451;-74
2023/09/10 09:37:47;;;;;;;18.57;16.63;;;28.20;99.90;;;;;;5111278;27;20873;-74
2023/09/10 09:40:13;;;;;;;19.65;16.08;;;28.50;99.90;;;;;;5110113;28;20412;-74
2023/09/10 09:42:39;;;;;;;18.90;17.00;;;28.80;99.90;;;;;;5110176;27;20994;-74
2023/09/10 09:45:05;;;;;;;18.50;16.63;;;29.30;93.00;;;;;;5110436;28;20409;-74
2023/09/10 09:47:31;;;;;;;18.83;16.83;;;29.50;18.70;;;;;;5110276;27;20401;-74
2023/09/10 09:49:57;;;;;;;18.30;16.42;;;29.70;1.00;;;;;;5110840;28;20988;-74
2023/09/10 09:52:23;;;;;;;16.45;14.75;;;29.80;1.00;;;;;;5109668;28;20479;-74
2023/09/10 09:54:49;;;;;;;16.52;14.18;;;30.20;1.00;;;;;;5110500;28;20411;-74
2023/09/10 09:57:16;;;;;;;16.90;15.30;;;30.40;99.90;;;;;;5110672;28;20421;-74
2023/09/10 09:59:43;;;;;;;15.63;14.10;;;30.60;99.90;;;;;;5110726;27;20434;-74
2023/09/10 10:02:17;;;;;;;15.95;14.35;;;30.90;99.90;;;;;;5111082;27;20446;-74
2023/09/10 10:04:43;;;;;;;16.30;14.70;;;31.00;99.90;;;;;;5109713;28;20448;-75
2023/09/10 10:07:11;;;;;;;17.48;15.77;;;31.10;99.90;;;;;;5110667;27;20504;-74
2023/09/10 10:09:38;;;;;;;14.65;13.25;;;31.20;99.90;;;;;;5109770;28;20447;-73
2023/09/10 10:12:05;;;;;;;16.55;14.77;;;31.40;99.90;;;;;;5110443;27;20447;-74
2023/09/10 10:14:32;;;;;;;15.43;13.90;;;31.70;99.90;;;;;;5091747;28;20410;-74
2023/09/10 10:17:00;;;;;;;16.13;14.50;;;31.90;99.90;;;;;;5110479;27;20420;-74
2023/09/10 10:19:29;;;;;;;18.35;16.55;;;32.20;99.90;;;;;;5110122;27;20913;-74
2023/09/10 10:21:55;;;;;;;17.37;15.67;;;32.30;99.90;;;;;;5110398;27;20415;-72
2023/09/10 10:24:21;;;;;;;14.73;13.33;;;32.30;99.90;;;;;;5110289;27;20425;-71
2023/09/10 10:26:48;;;;;;;17.42;15.80;;;32.40;99.90;;;;;;5093046;28;20983;-73
2023/09/10 10:29:15;;;;;;;15.97;14.10;;;32.70;99.90;;;;;;5110353;27;20959;-73
2023/09/10 10:31:44;;;;;;;14.05;12.65;;;32.80;99.90;;;;;;5110133;28;20454;-73
2023/09/10 10:34:16;;;;;;;16.47;14.90;;;32.90;99.90;;;;;;5109016;27;20419;-74
2023/09/10 10:37:00;;;;;;;16.40;14.70;;;33.10;99.90;;;;;;5110630;27;20400;-74
2023/09/10 10:40:09;;;;;;;18.35;16.60;;;33.30;99.90;;;;;;5110040;28;20443;-74
2023/09/10 10:42:49;;;;;;;16.05;14.55;;;33.30;99.90;;;;;;5091266;28;20495;-74
2023/09/10 10:45:17;;;;;;;16.53;14.83;;;33.20;99.90;;;;;;5099671;27;21047;-74
2023/09/10 10:47:44;;;;;;;15.97;14.27;;;33.10;99.90;;;;;;5110236;27;20410;-74
2023/09/10 10:50:10;;;;;;;15.45;13.98;;;33.00;99.90;;;;;;5110849;27;20410;-74
2023/09/10 10:52:56;;;;;;;;;;;33.10;99.90;;;;;;5113690;27;20036;-75
2023/09/10 10:55:23;;;;;;;;;;;33.30;99.90;;;;;;5097763;27;19930;-74
2023/09/10 10:57:49;;;;;;;14.10;12.70;;;33.20;99.90;;;;;;5095060;27;19972;-74
2023/09/10 11:00:15;;;;;;;14.50;13.18;;;33.30;99.90;;;;;;5111577;27;20408;-74
2023/09/10 11:02:41;;;;;;;14.93;13.43;;;33.40;99.90;;;;;;5113566;27;20424;-74
2023/09/10 11:05:07;;;;;;;13.73;12.27;;;33.50;99.90;;;;;;5111724;27;20412;-74
2023/09/10 11:07:34;;;;;;;13.15;11.95;;;33.70;99.90;;;;;;5107879;28;21972;-74
2023/09/10 11:10:19;;;;;;;14.38;12.88;;;33.80;99.90;;;;;;5109326;28;20431;-74
2023/09/10 11:13:03;;;;;;;;;;;33.80;99.90;;;;;;5111299;27;20408;-73
2023/09/10 11:15:29;;;;;;;;;;;33.80;99.90;;;;;;5109584;28;19919;-76
2023/09/10 11:17:54;;;;;;;;;;;33.80;99.90;;;;;;5110109;28;19923;-75
2023/09/10 11:20:38;;;;;;;;;;;33.90;99.90;;;;;;5111707;27;19941;-75
2023/09/10 11:23:09;;;;;;;;;;;33.90;99.90;;;;;;5109724;28;19927;-75
2023/09/10 11:25:38;;;;;;;;;;;33.90;99.90;;;;;;5107497;28;20315;-75
2023/09/10 11:28:03;;;;;;;;;;;33.80;99.90;;;;;;5114163;27;19920;-76
2023/09/10 11:30:29;;;;;;;;;;;33.90;99.90;;;;;;5110845;27;20296;-75
2023/09/10 11:33:13;;;;;;;;;;;34.00;99.90;;;;;;5110407;28;19926;-75
2023/09/10 11:35:39;;;;;;;;;;;34.10;99.90;;;;;;5110462;28;19924;-75
2023/09/10 11:38:04;;;;;;;12.57;10.45;;;34.20;99.90;;;;;;5091702;27;19942;-74
2023/09/10 11:40:30;;;;;;;11.10;10.07;;;34.30;99.90;;;;;;5090545;28;20934;-75
2023/09/10 11:42:57;;;;;;;12.32;11.07;;;34.50;99.90;;;;;;5107988;28;20411;-75
2023/09/10 11:45:23;;;;;;;;;;;34.60;99.90;;;;;;5110557;27;20543;-74
2023/09/10 11:47:49;;;;;;;;;;;34.60;99.90;;;;;;5092021;28;20400;-74
2023/09/10 11:50:20;;;;;;;;;;;34.30;99.90;;;;;;5110661;27;19920;-75
2023/09/10 11:52:45;;;;;;;;;;;34.40;99.90;;;;;;5110527;28;20492;-75
2023/09/10 11:55:11;;;;;;;;;;;34.40;99.90;;;;;;5110827;28;20010;-76
2023/09/10 11:57:36;;;;;;;;;;;34.40;99.90;;;;;;5111234;28;20514;-76
2023/09/10 12:00:03;;;;;;;;;;;34.40;99.90;;;;;;5110376;28;19926;-75
2023/09/10 12:02:29;;;;;;;;;;;34.40;99.90;;;;;;5092560;28;19928;-76
2023/09/10 12:04:58;;;;;;;;;;;34.60;99.90;;;;;;5083249;28;19966;-76
2023/09/10 12:07:23;;;;;;;;;;;34.70;99.90;;;;;;5089017;28;19935;-76
2023/09/10 12:09:49;;;;;;;;;;;34.80;99.90;;;;;;5110466;28;19919;-75
2023/09/10 12:12:16;;;;;;;;;;;34.90;99.90;;;;;;5110651;28;20331;-76
2023/09/10 12:14:41;;;;;;;;;;;35.00;99.90;;;;;;5110560;28;19981;-76
2023/09/10 12:17:07;;;;;;;;;;;34.90;99.90;;;;;;5110019;28;20389;-75
2023/09/10 12:19:33;;;;;;;;;;;34.80;99.90;;;;;;5074877;28;20257;-76
2023/09/10 12:22:00;;;;;;;;;;;34.80;99.90;;;;;;5111159;28;19924;-75
2023/09/10 12:24:26;;;;;;;;;;;34.80;99.90;;;;;;5110956;28;19958;-75
2023/09/10 12:26:51;;;;;;;;;;;34.80;99.90;;;;;;5110168;28;20330;-76
2023/09/10 12:29:17;;;;;;;;;;;34.90;99.90;;;;;;5086492;28;19973;-76
2023/09/10 12:31:43;;;;;;;;;;;34.90;99.90;;;;;;5078185;28;19926;-76
2023/09/10 12:34:09;;;;;;;;;;;35.00;99.90;;;;;;5113857;28;19946;-76
2023/09/10 12:36:38;;;;;;;;;;;35.10;99.90;;;;;;5099949;28;19963;-74
2023/09/10 12:39:05;;;;;;;;;;;35.20;99.90;;;;;;5114507;27;19920;-75
2023/09/10 12:41:30;;;;;;;;;;;35.20;99.90;;;;;;5114163;27;19920;-75
2023/09/10 12:43:56;;;;;;;;;;;35.20;99.90;;;;;;5113442;28;19920;-75
2023/09/10 12:46:21;;;;;;;;;;;35.10;99.90;;;;;;5112737;27;19978;-75